createdAt,value
2019-01-04T00:01:23.966Z,102404.34
2019-01-04T00:06:29.494Z,102405.98
2019-01-04T00:11:35.047Z,102409.16
2019-01-04T00:16:40.399Z,102402.48
2019-01-04T00:21:45.877Z,102406.61
2019-01-04T00:26:51.486Z,102406.73
2019-01-04T00:31:57.110Z,102409.37
2019-01-04T00:37:02.431Z,102409.84
2019-01-04T00:42:07.909Z,102406.94
2019-01-04T00:47:13.487Z,102397.98
2019-01-04T00:57:55.357Z,102394.14
2019-01-04T01:08:51.036Z,102377.16
2019-01-04T01:14:16.408Z,102382.28
2019-01-04T01:19:37.288Z,102376.91
2019-01-04T01:25:10.431Z,102371.98
2019-01-04T01:30:33.230Z,102367.88
2019-01-04T01:36:06.262Z,102366.66
2019-01-04T01:41:39.217Z,102367.30
2019-01-04T01:46:50.055Z,102364.48
2019-01-04T01:52:07.346Z,102372.02
2019-01-04T01:57:12.794Z,102366.20
2019-01-04T02:02:18.233Z,102375.75
2019-01-04T02:07:23.836Z,102379.19
2019-01-04T02:12:29.234Z,102388.56
2019-01-04T02:17:34.738Z,102389.38
2019-01-04T02:22:40.098Z,102388.31
2019-01-04T02:27:45.549Z,102391.70
2019-01-04T02:32:50.829Z,102390.09
2019-01-04T02:37:56.309Z,102393.09
2019-01-04T02:43:01.867Z,102391.69
2019-01-04T02:48:07.417Z,102381.89
2019-01-04T02:53:12.791Z,102376.25
2019-01-04T02:58:18.575Z,102370.56
2019-01-04T03:03:23.941Z,102370.62
2019-01-04T03:08:29.393Z,102364.17
2019-01-04T03:13:34.853Z,102358.89
2019-01-04T03:18:40.362Z,102353.04
2019-01-04T03:23:45.775Z,102346.23
2019-01-04T03:28:51.119Z,102344.59
2019-01-04T03:33:56.797Z,102343.73
2019-01-04T03:39:02.400Z,102339.30
2019-01-04T03:44:07.843Z,102330.50
2019-01-04T03:49:13.228Z,102337.55
2019-01-04T03:54:18.611Z,102337.05
2019-01-04T03:59:24.084Z,102339.70
2019-01-04T04:04:29.458Z,102339.92
2019-01-04T04:09:34.998Z,102343.91
2019-01-04T04:14:40.372Z,102336.09
2019-01-04T04:19:45.868Z,102341.97
2019-01-04T04:24:51.221Z,102341.36
2019-01-04T04:29:56.823Z,102335.60
2019-01-04T04:35:02.244Z,102334.81
2019-01-04T04:40:07.760Z,102336.00
2019-01-04T04:45:13.204Z,102344.47
2019-01-04T04:50:18.766Z,102343.62
2019-01-04T04:55:24.290Z,102346.84
2019-01-04T05:00:29.759Z,102345.37
2019-01-04T05:05:35.185Z,102348.48
2019-01-04T05:10:40.584Z,102348.48
2019-01-04T05:15:45.926Z,102347.63
2019-01-04T05:20:51.359Z,102347.67
2019-01-04T05:25:56.879Z,102344.07
2019-01-04T05:31:02.439Z,102343.16
2019-01-04T05:36:07.813Z,102345.14
2019-01-04T05:46:31.104Z,102355.51
2019-01-04T05:51:36.396Z,102360.91
2019-01-04T05:56:41.809Z,102357.45
2019-01-04T06:01:47.077Z,102353.13
2019-01-04T06:06:52.416Z,102354.74
2019-01-04T06:11:57.784Z,102353.09
2019-01-04T06:17:03.330Z,102359.37
2019-01-04T06:22:08.662Z,102359.37
2019-01-04T06:27:13.984Z,102351.18
2019-01-04T06:32:19.486Z,102347.72
2019-01-04T06:37:24.965Z,102347.66
2019-01-04T06:42:30.324Z,102352.00
2019-01-04T06:47:37.389Z,102356.84
2019-01-04T06:52:42.785Z,102351.66
2019-01-04T06:57:48.238Z,102348.17
2019-01-04T07:02:53.593Z,102354.48
2019-01-04T07:07:58.989Z,102351.23
2019-01-04T07:13:04.331Z,102357.02
2019-01-04T07:18:09.739Z,102357.91
2019-01-04T07:23:15.149Z,102355.63
2019-01-04T07:28:20.529Z,102356.88
2019-01-04T07:33:25.910Z,102357.72
2019-01-04T07:38:31.446Z,102362.50
2019-01-04T07:43:36.789Z,102362.16
2019-01-04T07:48:42.114Z,102365.77
2019-01-04T07:53:47.629Z,102364.47
2019-01-04T07:58:52.919Z,102380.11
2019-01-04T08:03:58.220Z,102382.87
2019-01-04T08:09:04.844Z,102391.19
2019-01-04T08:14:10.200Z,102392.39
2019-01-04T08:19:15.549Z,102403.81
2019-01-04T08:24:20.953Z,102407.23
2019-01-04T08:29:26.458Z,102410.94
2019-01-04T08:34:31.879Z,102412.13
2019-01-04T08:39:38.358Z,102425.84
2019-01-04T08:44:43.674Z,102428.98
2019-01-04T08:49:49.170Z,102436.53
2019-01-04T08:54:54.559Z,102439.64
2019-01-04T09:00:00.046Z,102451.94
2019-01-04T09:05:05.694Z,102446.99
2019-01-04T09:10:11.269Z,102449.63
2019-01-04T09:15:16.884Z,102438.62
2019-01-04T09:20:22.466Z,102445.77
2019-01-04T09:25:27.954Z,102437.83
2019-01-04T09:30:33.785Z,102450.14
2019-01-04T09:35:39.318Z,102454.06
2019-01-04T09:40:44.814Z,102455.18
2019-01-04T09:45:50.373Z,102453.18
2019-01-04T09:50:56.026Z,102458.34
2019-01-04T09:56:01.535Z,102469.55
2019-01-04T10:01:06.836Z,102463.19
2019-01-04T10:06:12.434Z,102469.05
2019-01-04T10:11:17.994Z,102466.41
2019-01-04T10:16:23.556Z,102472.20
2019-01-04T10:21:28.995Z,102482.00
2019-01-04T10:26:34.533Z,102474.51
2019-01-04T10:31:40.826Z,102483.02
2019-01-04T10:36:46.315Z,102491.36
2019-01-04T10:41:51.966Z,102497.48
2019-01-04T10:46:57.503Z,102491.28
2019-01-04T10:52:03.026Z,102492.69
2019-01-04T10:57:08.634Z,102490.08
2019-01-04T11:02:14.014Z,102492.69
2019-01-04T11:07:19.474Z,102490.18
2019-01-04T11:12:25.133Z,102485.81
2019-01-04T11:17:30.849Z,102480.09
2019-01-04T11:22:58.294Z,102475.77
2019-01-04T11:28:16.809Z,102467.25
2019-01-04T11:33:36.622Z,102455.19
2019-01-04T11:39:00.091Z,102463.77
2019-01-04T11:44:20.402Z,102465.27
2019-01-04T11:49:37.855Z,102472.69
2019-01-04T11:54:43.264Z,102457.65
2019-01-04T11:59:48.776Z,102464.23
2019-01-04T12:04:54.273Z,102462.11
2019-01-04T12:09:59.895Z,102462.01
2019-01-04T12:15:05.929Z,102464.37
2019-01-04T12:20:11.556Z,102447.78
2019-01-04T12:25:17.236Z,102447.89
2019-01-04T12:30:22.731Z,102436.13
2019-01-04T12:35:28.134Z,102450.84
2019-01-04T12:40:33.934Z,102439.56
2019-01-04T12:45:39.514Z,102437.33
2019-01-04T12:50:45.074Z,102434.66
2019-01-04T12:55:53.366Z,102429.35
2019-01-04T13:00:58.794Z,102424.16
2019-01-04T13:06:04.342Z,102413.37
2019-01-04T13:11:09.855Z,102414.75
2019-01-04T13:16:15.275Z,102400.58
2019-01-04T13:21:20.694Z,102402.45
2019-01-04T13:26:26.323Z,102396.23
2019-01-04T13:31:31.741Z,102393.14
2019-01-04T13:36:37.842Z,102381.98
2019-01-04T13:41:43.198Z,102383.67
2019-01-04T13:46:48.743Z,102377.14
2019-01-04T13:51:54.074Z,102376.98
2019-01-04T13:56:59.542Z,102375.44
2019-01-04T14:02:04.813Z,102382.55
2019-01-04T14:07:10.293Z,102379.60
2019-01-04T14:12:15.709Z,102374.23
2019-01-04T14:17:21.128Z,102371.76
2019-01-04T14:22:26.632Z,102381.61
2019-01-04T14:27:32.244Z,102376.98
2019-01-04T14:32:37.834Z,102377.83
2019-01-04T14:37:43.378Z,102376.11
2019-01-04T14:42:48.660Z,102379.19
2019-01-04T14:47:54.122Z,102382.23
2019-01-04T14:52:59.531Z,102383.06
2019-01-04T14:58:05.054Z,102374.20
2019-01-04T15:03:10.477Z,102384.33
2019-01-04T15:08:16.073Z,102388.33
2019-01-04T15:13:21.599Z,102380.99
2019-01-04T15:18:27.070Z,102378.73
2019-01-04T15:23:32.617Z,102392.34
2019-01-04T15:28:38.204Z,102384.75
2019-01-04T15:33:43.761Z,102397.44
2019-01-04T15:38:49.293Z,102392.66
2019-01-04T15:43:55.125Z,102394.09
2019-01-04T15:49:00.722Z,102393.93
2019-01-04T15:54:06.223Z,102394.22
2019-01-04T15:59:11.921Z,102396.59
2019-01-04T16:04:17.929Z,102390.39
2019-01-04T16:09:23.763Z,102398.03
2019-01-04T16:14:29.543Z,102400.23
2019-01-04T16:19:35.162Z,102399.64
2019-01-04T16:24:40.802Z,102401.62
2019-01-04T16:29:46.422Z,102410.00
2019-01-04T16:34:52.170Z,102411.07
2019-01-04T16:39:58.101Z,102412.28
2019-01-04T16:45:04.461Z,102417.61
2019-01-04T16:50:10.781Z,102420.80
2019-01-04T16:55:16.198Z,102412.56
2019-01-04T17:00:21.989Z,102410.51
2019-01-04T17:05:27.549Z,102414.58
2019-01-04T17:10:33.164Z,102405.63
2019-01-04T17:15:38.803Z,102411.17
2019-01-04T17:20:44.362Z,102406.64
2019-01-04T17:25:49.923Z,102408.97
2019-01-04T17:30:56.024Z,102408.64
2019-01-04T17:36:01.577Z,102409.23
2019-01-04T17:41:12.238Z,102406.73
2019-01-04T17:46:18.044Z,102407.45
2019-01-04T17:51:23.541Z,102411.49
2019-01-04T17:56:29.198Z,102414.92
2019-01-04T18:01:34.802Z,102419.63
2019-01-04T18:06:40.444Z,102418.75
2019-01-04T18:11:47.958Z,102423.37
2019-01-04T18:16:53.453Z,102422.03
2019-01-04T18:21:58.961Z,102422.14
2019-01-04T18:27:04.434Z,102420.23
2019-01-04T18:32:09.888Z,102427.75
2019-01-04T18:37:15.501Z,102413.69
2019-01-04T18:42:20.888Z,102421.58
2019-01-04T18:47:26.354Z,102422.88
2019-01-04T18:52:31.913Z,102420.42
2019-01-04T18:57:41.489Z,102424.46
2019-01-04T19:02:47.069Z,102417.56
2019-01-04T19:13:10.003Z,102423.64
2019-01-04T19:18:15.502Z,102423.93
2019-01-04T19:23:20.864Z,102429.67
2019-01-04T19:28:26.197Z,102438.52
2019-01-04T19:33:35.573Z,102439.80
2019-01-04T19:38:40.846Z,102445.50
2019-01-04T19:43:46.353Z,102453.81
2019-01-04T19:48:52.197Z,102456.34
2019-01-04T19:53:57.739Z,102464.13
2019-01-04T19:59:03.083Z,102459.94
2019-01-04T20:04:08.683Z,102468.93
2019-01-04T20:09:55.707Z,102468.56
2019-01-04T20:20:17.037Z,102463.95
2019-01-04T20:25:31.041Z,102463.53
2019-01-04T20:30:45.095Z,102475.77
2019-01-04T20:35:59.187Z,102472.29
2019-01-04T20:41:21.622Z,102472.62
2019-01-04T20:46:43.367Z,102474.98
2019-01-04T20:51:57.072Z,102479.84
2019-01-04T20:57:11.158Z,102481.53
2019-01-04T21:02:25.062Z,102469.66
2019-01-04T21:07:39.028Z,102470.63
2019-01-04T21:12:56.077Z,102469.39
2019-01-04T21:18:10.083Z,102471.08
2019-01-04T21:23:24.113Z,102472.86
2019-01-04T21:28:42.489Z,102471.72
2019-01-04T21:33:56.149Z,102464.74
2019-01-04T21:39:10.057Z,102459.48
2019-01-04T21:44:24.134Z,102457.74
2019-01-04T21:49:48.675Z,102452.48
2019-01-04T21:55:08.005Z,102449.88
2019-01-04T22:00:22.110Z,102447.11
2019-01-04T22:05:41.092Z,102443.06
2019-01-04T22:10:55.311Z,102441.99
2019-01-04T22:16:19.574Z,102439.80
2019-01-04T22:21:33.043Z,102437.37
2019-01-04T22:26:47.177Z,102439.17
2019-01-04T22:32:09.038Z,102436.60
2019-01-04T22:37:32.938Z,102428.49
2019-01-04T22:42:47.037Z,102422.92
2019-01-04T22:48:11.504Z,102425.18
2019-01-04T22:53:25.085Z,102427.86
2019-01-04T22:58:41.195Z,102430.06
2019-01-04T23:04:00.257Z,102423.87
2019-01-04T23:09:26.968Z,102419.65
2019-01-04T23:14:51.367Z,102423.48
2019-01-04T23:20:16.803Z,102426.19
2019-01-04T23:25:31.022Z,102428.97
2019-01-04T23:30:48.205Z,102428.80
2019-01-04T23:36:09.112Z,102423.23
2019-01-04T23:41:33.494Z,102420.22
2019-01-04T23:46:48.074Z,102405.17
2019-01-04T23:52:12.469Z,102404.77
2019-01-04T23:57:25.996Z,102409.31
